Time;durP1;ratioP1;P1;durP2;ratioP2;P2;SDS_P1;SDS_P2;PMS_P1;PMS_P2;Temp;Humidity;BMP_temperature;BMP_pressure;BME280_temperature;BME280_humidity;BME280_pressure;Samples;Min_cycle;Max_cycle;Signal;HPM_P1;HPM_P2
2024/01/11 00:02:23;;;;;;;28.30;17.17;;;-1.80;1.00;;;;;;5091250;28;20245;-80
2024/01/11 00:04:49;;;;;;;28.70;16.80;;;-1.80;1.00;;;;;;5091179;28;20175;-82
2024/01/11 00:07:14;;;;;;;28.53;17.73;;;-1.80;1.00;;;;;;5092355;28;20168;-82
2024/01/11 00:09:42;;;;;;;25.90;16.10;;;-1.80;1.00;;;;;;5091818;28;20266;-81
2024/01/11 00:12:08;;;;;;;26.97;15.80;;;-1.80;1.00;;;;;;5091943;28;20644;-82
2024/01/11 00:14:35;;;;;;;24.57;15.93;;;-1.80;1.00;;;;;;5091355;28;20178;-80
2024/01/11 00:17:01;;;;;;;29.47;17.17;;;-1.80;1.00;;;;;;5091760;28;20210;-80
2024/01/11 00:19:26;;;;;;;28.00;16.67;;;-1.80;1.00;;;;;;5092599;28;20164;-79
2024/01/11 00:21:52;;;;;;;28.17;16.13;;;-1.70;1.00;;;;;;5089060;28;20179;-83
2024/01/11 00:24:18;;;;;;;27.50;16.43;;;-1.70;1.00;;;;;;5090457;28;20540;-80
2024/01/11 00:26:43;;;;;;;25.37;15.87;;;-1.80;1.00;;;;;;5091040;28;20179;-80
2024/01/11 00:29:09;;;;;;;28.33;17.33;;;-1.80;1.00;;;;;;5091243;28;20175;-80
2024/01/11 00:31:35;;;;;;;32.03;17.90;;;-1.70;1.00;;;;;;5091507;28;20550;-79
2024/01/11 00:34:01;;;;;;;27.07;16.33;;;-1.60;1.00;;;;;;5093019;28;20640;-80
2024/01/11 00:36:28;;;;;;;25.07;16.10;;;-1.80;1.00;;;;;;5092740;28;20203;-82
2024/01/11 00:38:54;;;;;;;25.57;16.63;;;-1.70;1.00;;;;;;5092939;28;20537;-81
2024/01/11 00:41:20;;;;;;;28.33;17.60;;;-1.90;1.00;;;;;;5089504;28;20176;-82
2024/01/11 00:43:46;;;;;;;25.13;16.40;;;-1.80;1.00;;;;;;5089436;28;20189;-79
2024/01/11 00:46:11;;;;;;;32.27;18.70;;;-1.80;1.00;;;;;;5090280;28;20176;-81
2024/01/11 00:48:37;;;;;;;27.40;16.93;;;-1.80;1.00;;;;;;5091289;28;20650;-82
2024/01/11 00:51:06;;;;;;;27.40;16.73;;;-1.80;1.00;;;;;;5089831;28;20631;-82
2024/01/11 00:53:33;;;;;;;27.70;17.77;;;-1.60;1.00;;;;;;5093132;28;20171;-81
2024/01/11 00:55:59;;;;;;;29.77;16.43;;;-1.80;1.00;;;;;;5090325;28;20176;-81
2024/01/11 00:58:25;;;;;;;26.67;16.43;;;-1.70;1.00;;;;;;5090264;28;20187;-81
2024/01/11 01:00:52;;;;;;;29.10;16.67;;;-1.80;1.00;;;;;;5091902;28;20274;-82
2024/01/11 01:03:21;;;;;;;26.10;15.43;;;-1.80;1.00;;;;;;5096803;28;20214;-81
2024/01/11 01:05:47;;;;;;;27.43;16.40;;;-1.70;1.00;;;;;;5095565;28;20538;-80
2024/01/11 01:08:14;;;;;;;26.77;16.80;;;-1.90;1.00;;;;;;5092570;28;20186;-83
2024/01/11 01:10:40;;;;;;;25.47;16.07;;;-1.90;1.00;;;;;;5092593;28;20635;-81
2024/01/11 01:13:05;;;;;;;26.23;15.60;;;-2.00;1.00;;;;;;5090531;28;20203;-81
2024/01/11 01:15:31;;;;;;;31.27;17.40;;;-1.90;1.00;;;;;;5090183;28;20175;-82
2024/01/11 01:17:57;;;;;;;26.37;15.83;;;-2.00;1.00;;;;;;5091391;28;20211;-80
2024/01/11 01:20:23;;;;;;;25.13;16.50;;;-2.00;1.00;;;;;;5091423;28;20179;-81
2024/01/11 01:22:49;;;;;;;27.93;16.43;;;-2.20;1.00;;;;;;5090377;28;20233;-82
2024/01/11 01:25:15;;;;;;;26.00;17.23;;;-2.20;1.00;;;;;;5091406;28;20202;-81
2024/01/11 01:27:41;;;;;;;25.47;14.73;;;-2.20;1.00;;;;;;5091221;28;20258;-81
2024/01/11 01:30:08;;;;;;;29.63;17.20;;;-2.20;1.00;;;;;;5092508;28;20172;-81
2024/01/11 01:32:34;;;;;;;28.63;16.60;;;-2.20;1.00;;;;;;5092935;28;20240;-83
2024/01/11 01:35:00;;;;;;;26.77;17.17;;;-2.10;1.00;;;;;;5091299;28;20647;-81
2024/01/11 01:37:26;;;;;;;29.43;16.37;;;-2.10;1.00;;;;;;5091033;28;20299;-81
2024/01/11 01:39:51;;;;;;;27.50;16.30;;;-2.20;1.00;;;;;;5091982;28;20579;-82
2024/01/11 01:42:17;;;;;;;26.63;16.67;;;-2.20;1.00;;;;;;5091266;28;20171;-79
2024/01/11 01:44:43;;;;;;;24.73;16.03;;;-2.10;1.00;;;;;;5091389;28;20195;-84
2024/01/11 01:47:10;;;;;;;25.00;16.23;;;-2.30;1.00;;;;;;5094204;28;20172;-81
2024/01/11 01:49:37;;;;;;;28.20;16.87;;;-2.30;1.00;;;;;;5094795;28;20168;-82
2024/01/11 01:52:03;;;;;;;25.57;16.20;;;-2.30;1.00;;;;;;5095166;28;20231;-83
2024/01/11 01:54:30;;;;;;;29.87;17.20;;;-2.30;1.00;;;;;;5094198;28;20168;-81
2024/01/11 01:56:56;;;;;;;32.10;16.53;;;-2.30;1.00;;;;;;5094915;28;20211;-81
2024/01/11 01:59:24;;;;;;;28.00;16.53;;;-2.30;1.00;;;;;;5093212;28;20533;-81
2024/01/11 02:01:50;;;;;;;27.27;17.43;;;-2.30;1.00;;;;;;5094136;28;20187;-80
2024/01/11 02:04:16;;;;;;;28.53;16.67;;;-2.20;1.00;;;;;;5094135;28;20178;-81
2024/01/11 02:06:45;;;;;;;25.33;16.60;;;-2.10;1.00;;;;;;5094756;28;20288;-79
2024/01/11 02:09:11;;;;;;;28.03;18.33;;;-2.00;1.00;;;;;;5093459;28;20179;-81
2024/01/11 02:11:39;;;;;;;29.90;16.60;;;-2.10;1.00;;;;;;5092761;28;20596;-82
2024/01/11 02:14:04;;;;;;;27.23;16.80;;;-2.00;1.00;;;;;;5094472;28;20267;-81
2024/01/11 02:16:30;;;;;;;33.73;16.77;;;-1.90;1.00;;;;;;5095337;28;20621;-82
2024/01/11 02:18:56;;;;;;;25.93;17.87;;;-2.10;1.00;;;;;;5093933;28;20258;-81
2024/01/11 02:21:23;;;;;;;25.60;17.40;;;-2.00;1.00;;;;;;5094987;28;20588;-81
2024/01/11 02:24:06;;;;;;;25.40;14.17;;;-2.20;1.00;;;;;;5094454;28;20168;-80
2024/01/11 02:26:32;;;;;;;28.97;16.83;;;-2.30;1.00;;;;;;5094070;28;20195;-79
2024/01/11 02:28:58;;;;;;;27.67;17.97;;;-2.30;1.00;;;;;;5093229;28;20178;-82
2024/01/11 02:31:24;;;;;;;29.23;17.53;;;-2.30;1.00;;;;;;5094574;28;20180;-81
2024/01/11 02:33:55;;;;;;;26.83;16.53;;;-2.40;1.00;;;;;;5095156;28;20265;-80
2024/01/11 02:36:21;;;;;;;29.47;16.43;;;-2.50;1.00;;;;;;5093000;28;20278;-81
2024/01/11 02:38:48;;;;;;;26.73;17.10;;;-2.50;1.00;;;;;;5094050;28;20186;-81
2024/01/11 02:41:18;;;;;;;27.43;17.33;;;-2.40;1.00;;;;;;5094638;28;20197;-83
2024/01/11 02:43:48;;;;;;;26.00;16.10;;;-2.50;1.00;;;;;;5092217;28;20171;-82
2024/01/11 02:46:15;;;;;;;28.57;17.07;;;-2.50;1.00;;;;;;5093985;28;20224;-82
2024/01/11 02:48:41;;;;;;;28.03;16.60;;;-2.50;1.00;;;;;;5092151;28;20191;-81
2024/01/11 02:51:06;;;;;;;28.97;17.43;;;-2.60;1.00;;;;;;5094857;28;20179;-82
2024/01/11 02:53:34;;;;;;;29.37;18.47;;;-2.50;1.00;;;;;;5093247;28;20168;-81
2024/01/11 02:56:00;;;;;;;29.57;17.40;;;-2.50;1.00;;;;;;5093124;28;20550;-81
2024/01/11 02:58:26;;;;;;;24.93;15.87;;;-2.30;1.00;;;;;;5092673;28;20520;-81
2024/01/11 03:00:52;;;;;;;27.30;17.00;;;-2.50;1.00;;;;;;5093018;28;20168;-80
2024/01/11 03:03:17;;;;;;;29.20;18.70;;;-2.50;1.00;;;;;;5093501;28;20171;-81
2024/01/11 03:05:43;;;;;;;27.17;17.43;;;-2.50;1.00;;;;;;5092317;28;20624;-79
2024/01/11 03:08:09;;;;;;;24.40;14.47;;;-2.50;1.00;;;;;;5092681;28;20171;-82
2024/01/11 03:10:38;;;;;;;29.60;18.57;;;-2.40;1.00;;;;;;5092745;28;20176;-83
2024/01/11 03:13:05;;;;;;;25.07;16.60;;;-2.60;1.00;;;;;;5092784;28;20237;-79
2024/01/11 03:15:31;;;;;;;26.70;15.83;;;-2.60;1.00;;;;;;5091959;28;20179;-81
2024/01/11 03:17:57;;;;;;;24.00;16.57;;;-2.50;1.00;;;;;;5092651;28;20212;-81
2024/01/11 03:20:24;;;;;;;28.07;17.50;;;-2.50;1.00;;;;;;5072899;28;20172;-80
2024/01/11 03:22:51;;;;;;;26.10;16.23;;;-2.60;1.00;;;;;;5072660;28;20362;-82
2024/01/11 03:25:17;;;;;;;24.73;16.27;;;-2.60;1.00;;;;;;5071890;28;20559;-80
2024/01/11 03:27:42;;;;;;;26.03;16.97;;;-2.60;1.00;;;;;;5072020;28;20187;-81
2024/01/11 03:30:08;;;;;;;28.03;16.43;;;-2.60;1.00;;;;;;5071686;28;20211;-80
2024/01/11 03:32:34;;;;;;;26.17;16.47;;;-2.60;1.00;;;;;;5072703;28;20175;-84
2024/01/11 03:35:00;;;;;;;27.83;17.60;;;-2.50;1.00;;;;;;5071667;28;20314;-81
2024/01/11 03:37:25;;;;;;;29.50;17.40;;;-2.60;1.00;;;;;;5072372;28;20699;-80
2024/01/11 03:39:51;;;;;;;27.67;16.67;;;-2.60;1.00;;;;;;5072180;28;20180;-79
2024/01/11 03:42:17;;;;;;;35.00;17.80;;;-2.60;1.00;;;;;;5070761;28;20183;-82
2024/01/11 03:44:42;;;;;;;27.57;17.00;;;-2.50;1.00;;;;;;5071963;28;20334;-82
2024/01/11 03:47:08;;;;;;;30.63;17.37;;;-2.40;1.00;;;;;;5071558;28;20772;-83
2024/01/11 03:49:34;;;;;;;27.80;15.67;;;-2.50;1.00;;;;;;5084047;28;20187;-79
2024/01/11 03:51:59;;;;;;;27.57;17.23;;;-2.60;1.00;;;;;;5092082;28;20188;-80
2024/01/11 03:54:25;;;;;;;24.47;16.50;;;-2.60;1.00;;;;;;5091527;28;20184;-81
2024/01/11 03:56:51;;;;;;;25.97;16.33;;;-2.50;1.00;;;;;;5092117;28;20693;-82
2024/01/11 03:59:16;;;;;;;32.03;17.87;;;-2.70;1.00;;;;;;5092316;28;20198;-80
2024/01/11 04:01:43;;;;;;;27.63;17.20;;;-2.70;1.00;;;;;;5092414;28;20179;-80
2024/01/11 04:04:09;;;;;;;28.53;18.87;;;-2.70;1.00;;;;;;5092599;28;20259;-81
2024/01/11 04:06:34;;;;;;;31.10;18.00;;;-2.70;1.00;;;;;;5091821;28;20255;-80
2024/01/11 04:09:00;;;;;;;27.00;17.40;;;-2.70;1.00;;;;;;5092259;28;20186;-80
2024/01/11 04:11:29;;;;;;;27.30;17.67;;;-2.70;1.00;;;;;;5093036;28;20225;-79
2024/01/11 04:13:55;;;;;;;28.23;17.80;;;-2.70;1.00;;;;;;5091838;28;20302;-81
2024/01/11 04:16:21;;;;;;;30.00;18.90;;;-2.70;1.00;;;;;;5091353;28;20622;-81
2024/01/11 04:18:47;;;;;;;29.77;17.77;;;-2.70;1.00;;;;;;5092382;28;20661;-80
2024/01/11 04:21:29;;;;;;;26.40;17.87;;;-2.50;1.00;;;;;;5092394;28;20632;-82
2024/01/11 04:23:58;;;;;;;27.40;17.57;;;-2.60;1.00;;;;;;5093687;28;20199;-83
2024/01/11 04:26:24;;;;;;;28.10;17.63;;;-2.60;1.00;;;;;;5092900;28;20288;-79
2024/01/11 04:28:51;;;;;;;28.93;18.57;;;-2.50;1.00;;;;;;5090410;28;20269;-81
2024/01/11 04:31:16;;;;;;;25.03;18.00;;;-2.50;1.00;;;;;;5094314;28;20180;-80
2024/01/11 04:33:43;;;;;;;31.03;18.47;;;-2.50;1.00;;;;;;5100019;28;20214;-79
2024/01/11 04:36:10;;;;;;;33.17;18.10;;;-2.50;1.00;;;;;;5096435;28;20175;-81
2024/01/11 04:38:37;;;;;;;33.93;18.90;;;-2.60;1.00;;;;;;5094459;28;20254;-81
2024/01/11 04:41:13;;;;;;;25.37;17.13;;;-2.60;1.00;;;;;;5092225;28;20544;-82
2024/01/11 04:43:40;;;;;;;28.13;17.30;;;-2.60;1.00;;;;;;5092252;28;20245;-81
2024/01/11 04:46:22;;;;;;;24.00;17.17;;;-2.60;1.00;;;;;;5090149;28;20261;-83
2024/01/11 04:48:49;;;;;;;25.30;17.07;;;-2.60;1.00;;;;;;5091088;28;20654;-81
2024/01/11 04:51:15;;;;;;;28.47;18.33;;;-2.70;1.00;;;;;;5091350;28;20192;-80
2024/01/11 04:53:42;;;;;;;28.90;18.30;;;-2.70;1.00;;;;;;5091170;28;20258;-80
2024/01/11 04:56:09;;;;;;;27.70;18.40;;;-2.70;1.00;;;;;;5091472;28;20183;-81
2024/01/11 04:58:35;;;;;;;28.20;18.03;;;-2.60;1.00;;;;;;5092020;28;20176;-80
2024/01/11 05:01:01;;;;;;;30.80;17.70;;;-2.70;1.00;;;;;;5092635;28;20168;-82
2024/01/11 05:03:28;;;;;;;30.37;17.63;;;-2.50;1.00;;;;;;5091239;28;20250;-80
2024/01/11 05:05:53;;;;;;;30.37;16.93;;;-2.60;1.00;;;;;;5091324;28;20599;-81
2024/01/11 05:08:19;;;;;;;26.63;16.87;;;-2.70;1.00;;;;;;5091184;28;20171;-80
2024/01/11 05:10:45;;;;;;;26.33;17.53;;;-2.80;1.00;;;;;;5090860;28;20575;-81
2024/01/11 05:13:10;;;;;;;26.23;16.83;;;-2.80;1.00;;;;;;5090759;28;20534;-81
2024/01/11 05:15:36;;;;;;;28.83;17.93;;;-2.90;1.00;;;;;;5091532;28;20186;-80
2024/01/11 05:18:02;;;;;;;31.23;18.60;;;-2.90;1.00;;;;;;5091826;28;20203;-80
2024/01/11 05:20:27;;;;;;;28.23;18.37;;;-2.90;1.00;;;;;;5090925;28;20616;-80
2024/01/11 05:22:54;;;;;;;31.30;17.83;;;-2.90;1.00;;;;;;5095471;28;20199;-80
2024/01/11 05:25:20;;;;;;;25.53;16.27;;;-2.90;1.00;;;;;;5095038;28;20196;-80
2024/01/11 05:27:45;;;;;;;31.87;18.97;;;-2.80;1.00;;;;;;5095108;28;20650;-82
2024/01/11 05:30:12;;;;;;;25.73;16.60;;;-3.00;1.00;;;;;;5096415;28;20171;-82
2024/01/11 05:32:38;;;;;;;31.03;19.17;;;-3.00;1.00;;;;;;5095456;28;20171;-82
2024/01/11 05:35:04;;;;;;;27.67;17.63;;;-3.00;1.00;;;;;;5096384;28;20168;-81
2024/01/11 05:37:29;;;;;;;29.60;19.20;;;-3.00;1.00;;;;;;5093921;28;20582;-81
2024/01/11 05:39:56;;;;;;;30.73;18.73;;;-3.00;1.00;;;;;;5093965;28;20179;-80
2024/01/11 05:42:23;;;;;;;28.07;19.00;;;-3.00;1.00;;;;;;5093931;28;20187;-81
2024/01/11 05:44:49;;;;;;;30.77;18.00;;;-3.00;1.00;;;;;;5094281;28;20190;-79
2024/01/11 05:47:14;;;;;;;27.07;16.50;;;-3.00;1.00;;;;;;5094856;28;20179;-81
2024/01/11 05:49:40;;;;;;;27.60;16.30;;;-3.00;1.00;;;;;;5094346;28;20179;-81
2024/01/11 05:52:06;;;;;;;29.93;19.77;;;-2.90;1.00;;;;;;5093725;28;20705;-81
2024/01/11 05:54:32;;;;;;;28.27;17.87;;;-3.00;1.00;;;;;;5094294;28;20172;-79
2024/01/11 05:56:59;;;;;;;31.27;18.50;;;-3.00;1.00;;;;;;5094773;28;20235;-80
2024/01/11 05:59:24;;;;;;;26.23;18.03;;;-3.10;1.00;;;;;;5094563;28;20255;-82
2024/01/11 06:01:50;;;;;;;29.53;20.40;;;-3.10;1.00;;;;;;5094664;28;20209;-82
2024/01/11 06:04:16;;;;;;;30.17;18.73;;;-3.10;1.00;;;;;;5093241;28;20171;-81
2024/01/11 06:06:42;;;;;;;31.10;17.87;;;-2.90;1.00;;;;;;5094396;28;20186;-81
2024/01/11 06:09:08;;;;;;;31.83;19.97;;;-3.10;1.00;;;;;;5094094;28;20228;-81
2024/01/11 06:11:33;;;;;;;29.13;17.30;;;-2.90;1.00;;;;;;5095401;28;20172;-82
2024/01/11 06:14:01;;;;;;;29.03;19.93;;;-3.00;1.00;;;;;;5093909;28;20524;-80
2024/01/11 06:16:27;;;;;;;32.87;18.67;;;-3.00;1.00;;;;;;5094330;28;20203;-80
2024/01/11 06:18:52;;;;;;;29.63;19.67;;;-2.90;1.00;;;;;;5094609;28;20519;-80
2024/01/11 06:21:18;;;;;;;30.83;19.40;;;-2.90;1.00;;;;;;5093224;28;20263;-79
2024/01/11 06:23:44;;;;;;;28.43;19.47;;;-2.80;1.00;;;;;;5095574;28;20199;-82
2024/01/11 06:26:10;;;;;;;28.07;17.30;;;-2.90;1.00;;;;;;5093041;28;20627;-81
2024/01/11 06:28:35;;;;;;;32.73;18.50;;;-2.90;1.00;;;;;;5098838;28;20274;-80
2024/01/11 06:31:01;;;;;;;33.77;20.77;;;-2.80;1.00;;;;;;5098365;28;20214;-82
2024/01/11 06:33:28;;;;;;;35.47;20.37;;;-3.00;1.00;;;;;;5093121;28;20176;-81
2024/01/11 06:35:54;;;;;;;33.50;20.47;;;-2.80;1.00;;;;;;5094955;28;20171;-81
2024/01/11 06:38:20;;;;;;;31.10;19.63;;;-3.00;1.00;;;;;;5092093;28;20222;-80
2024/01/11 06:40:46;;;;;;;35.47;19.60;;;-3.00;1.00;;;;;;5093411;28;20175;-82
2024/01/11 06:43:12;;;;;;;36.87;19.87;;;-3.00;1.00;;;;;;5093432;28;20171;-83
2024/01/11 06:45:38;;;;;;;37.30;19.87;;;-3.10;1.00;;;;;;5093610;28;20239;-80
2024/01/11 06:48:04;;;;;;;36.97;19.37;;;-3.10;1.00;;;;;;5092979;28;20203;-81
2024/01/11 06:50:30;;;;;;;36.83;21.47;;;-3.10;1.00;;;;;;5094502;28;20167;-83
2024/01/11 06:52:55;;;;;;;30.20;18.40;;;-3.10;1.00;;;;;;5092783;28;20233;-79
2024/01/11 06:55:21;;;;;;;30.43;20.33;;;-3.10;1.00;;;;;;5093881;28;20195;-81
2024/01/11 06:57:48;;;;;;;27.03;18.50;;;-3.10;1.00;;;;;;5092329;28;20580;-81
2024/01/11 07:00:13;;;;;;;30.00;19.00;;;-3.10;1.00;;;;;;5094431;28;20199;-84
2024/01/11 07:02:42;;;;;;;33.30;19.43;;;-3.20;1.00;;;;;;5091807;28;20213;-81
2024/01/11 07:05:08;;;;;;;33.77;18.17;;;-3.20;1.00;;;;;;5091780;28;20240;-80
2024/01/11 07:07:34;;;;;;;33.80;21.50;;;-3.10;2.30;;;;;;5092341;28;20581;-82
2024/01/11 07:09:59;;;;;;;32.33;20.43;;;-3.20;3.50;;;;;;5092967;28;20172;-82
2024/01/11 07:12:25;;;;;;;31.53;18.00;;;-3.10;1.20;;;;;;5091755;28;20187;-84
2024/01/11 07:14:52;;;;;;;31.83;18.93;;;-3.00;1.00;;;;;;5095353;28;20164;-82
2024/01/11 07:17:18;;;;;;;35.90;20.53;;;-3.00;1.00;;;;;;5088947;28;20207;-81
2024/01/11 07:19:43;;;;;;;37.90;19.50;;;-3.20;1.00;;;;;;5087984;28;20191;-81
2024/01/11 07:22:09;;;;;;;35.50;20.43;;;-3.20;3.60;;;;;;5089852;28;20290;-80
2024/01/11 07:24:37;;;;;;;31.50;19.30;;;-3.20;1.00;;;;;;5093214;28;20251;-81
2024/01/11 07:27:07;;;;;;;27.33;14.70;;;-3.30;1.20;;;;;;5093119;28;20183;-78
2024/01/11 07:29:35;;;;;;;38.73;18.30;;;-3.30;1.50;;;;;;5091912;28;20599;-79
2024/01/11 07:32:01;;;;;;;33.47;18.90;;;-3.30;3.10;;;;;;5091068;28;20514;-82
2024/01/11 07:34:27;;;;;;;30.20;18.97;;;-3.20;3.60;;;;;;5092137;28;20626;-80
2024/01/11 07:36:53;;;;;;;35.50;20.83;;;-3.30;7.00;;;;;;5090924;28;20211;-82
2024/01/11 07:39:19;;;;;;;29.27;18.47;;;-3.30;4.60;;;;;;5092072;28;20179;-80
2024/01/11 07:41:45;;;;;;;28.87;17.97;;;-3.30;4.30;;;;;;5091810;28;20197;-80
2024/01/11 07:44:11;;;;;;;35.27;20.07;;;-3.30;4.30;;;;;;5091253;28;20220;-82
2024/01/11 07:46:36;;;;;;;31.63;18.13;;;-3.40;5.10;;;;;;5093669;28;20238;-79
2024/01/11 07:49:03;;;;;;;35.83;20.47;;;-3.40;3.90;;;;;;5093471;28;20572;-79
2024/01/11 07:51:29;;;;;;;29.67;17.10;;;-3.30;6.40;;;;;;5090236;28;20209;-79
2024/01/11 07:53:55;;;;;;;30.80;16.70;;;-3.40;5.30;;;;;;5089714;28;20183;-82
2024/01/11 07:56:20;;;;;;;30.40;16.97;;;-3.40;7.10;;;;;;5090770;28;20556;-81
2024/01/11 07:58:47;;;;;;;34.77;21.47;;;-3.50;10.30;;;;;;5092192;28;20591;-80
2024/01/11 08:01:13;;;;;;;36.03;19.77;;;-3.40;11.30;;;;;;5093464;28;20164;-82
2024/01/11 08:03:38;;;;;;;31.00;18.37;;;-3.40;11.30;;;;;;5092516;28;20236;-82
2024/01/11 08:06:07;;;;;;;39.20;20.53;;;-3.40;8.40;;;;;;5092951;28;20163;-78
2024/01/11 08:08:33;;;;;;;35.67;20.43;;;-3.40;7.80;;;;;;5093709;28;20659;-77
2024/01/11 08:10:59;;;;;;;31.80;20.50;;;-3.30;7.70;;;;;;5091793;28;20178;-81
2024/01/11 08:13:25;;;;;;;34.23;21.57;;;-3.30;9.10;;;;;;5091731;28;20164;-79
2024/01/11 08:15:50;;;;;;;30.67;20.20;;;-3.10;8.20;;;;;;5093780;28;20164;-81
2024/01/11 08:18:18;;;;;;;35.07;20.70;;;-3.10;2.80;;;;;;5094861;28;20207;-79
2024/01/11 08:20:44;;;;;;;35.23;19.47;;;-3.10;1.10;;;;;;5092743;28;20171;-78
2024/01/11 08:23:10;;;;;;;29.70;19.10;;;-3.20;1.00;;;;;;5092029;28;20179;-78
2024/01/11 08:25:35;;;;;;;35.33;19.80;;;-3.30;1.00;;;;;;5091779;28;20591;-79
2024/01/11 08:28:02;;;;;;;29.03;17.43;;;-3.30;1.00;;;;;;5091726;28;20685;-81
2024/01/11 08:30:28;;;;;;;31.37;18.50;;;-3.40;1.00;;;;;;5091455;28;20205;-79
2024/01/11 08:32:55;;;;;;;33.20;19.77;;;-3.40;1.50;;;;;;5091698;28;20589;-80
2024/01/11 08:35:21;;;;;;;30.57;18.40;;;-3.20;3.70;;;;;;5091592;28;20182;-81
2024/01/11 08:37:47;;;;;;;33.83;20.13;;;-3.30;2.40;;;;;;5092876;28;20215;-79
2024/01/11 08:40:13;;;;;;;31.53;18.87;;;-3.30;2.60;;;;;;5091327;28;20176;-81
2024/01/11 08:42:41;;;;;;;35.27;20.23;;;-3.30;3.90;;;;;;5092925;28;20241;-80
2024/01/11 08:45:07;;;;;;;45.43;20.60;;;-3.30;2.60;;;;;;5091913;28;20696;-78
2024/01/11 08:47:38;;;;;;;31.23;18.40;;;-3.30;7.00;;;;;;5091611;28;20266;-79
2024/01/11 08:50:06;;;;;;;38.73;20.57;;;-3.20;4.00;;;;;;5090860;28;20177;-82
2024/01/11 08:52:33;;;;;;;35.83;21.50;;;-3.30;2.00;;;;;;5092806;28;20243;-82
2024/01/11 08:54:59;;;;;;;33.10;20.33;;;-3.20;1.20;;;;;;5093251;28;20172;-81
2024/01/11 08:57:24;;;;;;;32.80;17.53;;;-3.20;1.00;;;;;;5092890;28;20347;-81
2024/01/11 08:59:50;;;;;;;32.73;16.93;;;-3.20;3.40;;;;;;5091052;28;20168;-83
2024/01/11 09:02:15;;;;;;;31.30;20.13;;;-3.20;1.00;;;;;;5092642;28;20259;-81
2024/01/11 09:04:41;;;;;;;33.57;21.07;;;-3.20;1.00;;;;;;5090617;28;20535;-83
2024/01/11 09:07:07;;;;;;;32.60;18.30;;;-3.10;1.00;;;;;;5091628;28;20206;-84
2024/01/11 09:09:32;;;;;;;37.60;20.43;;;-3.10;1.00;;;;;;5091016;28;20630;-80
2024/01/11 09:11:58;;;;;;;34.37;20.80;;;-3.10;1.20;;;;;;5090718;28;20584;-81
2024/01/11 09:14:24;;;;;;;29.40;19.20;;;-3.00;2.00;;;;;;5092587;28;20163;-83
2024/01/11 09:16:49;;;;;;;41.00;21.30;;;-3.00;1.00;;;;;;5090710;28;20324;-82
2024/01/11 09:19:15;;;;;;;39.23;22.00;;;-2.90;1.00;;;;;;5092142;28;20651;-79
2024/01/11 09:21:42;;;;;;;34.90;20.93;;;-2.90;1.00;;;;;;5092545;28;20592;-80
2024/01/11 09:24:08;;;;;;;35.23;21.97;;;-2.80;1.00;;;;;;5090616;28;20266;-82
2024/01/11 09:26:36;;;;;;;29.30;16.50;;;-2.90;1.00;;;;;;5091075;28;20295;-85
2024/01/11 09:29:02;;;;;;;36.27;21.53;;;-2.70;1.00;;;;;;5091053;28;20172;-82
2024/01/11 09:31:27;;;;;;;40.13;20.47;;;-2.70;1.00;;;;;;5092058;28;20685;-80
2024/01/11 09:33:53;;;;;;;35.80;19.00;;;-2.80;1.00;;;;;;5092033;28;20175;-82
2024/01/11 09:36:19;;;;;;;33.50;20.30;;;-2.80;1.00;;;;;;5090774;28;20602;-82
2024/01/11 09:38:45;;;;;;;32.40;20.43;;;-2.70;1.00;;;;;;5092789;28;20260;-83
2024/01/11 09:41:13;;;;;;;34.73;21.73;;;-2.70;1.00;;;;;;5091767;28;20178;-81
2024/01/11 09:43:41;;;;;;;34.60;18.10;;;-2.70;1.00;;;;;;5091179;28;20168;-82
2024/01/11 09:46:07;;;;;;;31.07;18.30;;;-2.70;1.00;;;;;;5090745;28;20172;-80
2024/01/11 09:48:37;;;;;;;35.13;21.17;;;-2.70;1.00;;;;;;5090493;28;20163;-79
2024/01/11 09:51:04;;;;;;;35.87;18.33;;;-2.70;1.00;;;;;;5091967;28;20198;-82
2024/01/11 09:53:34;;;;;;;36.10;20.80;;;-2.50;1.00;;;;;;5091800;28;20167;-78
2024/01/11 09:56:00;;;;;;;34.47;21.10;;;-2.70;1.00;;;;;;5089897;28;20195;-80
2024/01/11 09:58:26;;;;;;;25.07;15.60;;;-2.60;1.00;;;;;;5085706;28;20208;-83
2024/01/11 10:00:56;;;;;;;39.50;21.17;;;-2.60;1.00;;;;;;5080732;28;20169;-83
2024/01/11 10:03:28;;;;;;;36.53;21.77;;;-2.50;1.00;;;;;;5070662;28;20518;-82
2024/01/11 10:05:58;;;;;;;39.87;22.30;;;-2.50;1.00;;;;;;5070646;28;20556;-83
2024/01/11 10:08:24;;;;;;;36.70;22.00;;;-2.40;1.00;;;;;;5074100;28;20550;-79
2024/01/11 10:10:50;;;;;;;40.90;23.07;;;-2.40;1.00;;;;;;5074418;28;20176;-80
2024/01/11 10:13:18;;;;;;;33.47;20.60;;;-2.20;1.00;;;;;;5079722;28;20180;-79
2024/01/11 10:15:44;;;;;;;34.47;22.87;;;-2.10;1.00;;;;;;5076401;28;20266;-79
2024/01/11 10:18:10;;;;;;;34.17;21.63;;;-2.10;1.00;;;;;;5073804;28;20220;-81
2024/01/11 10:20:37;;;;;;;32.30;19.70;;;-2.10;1.00;;;;;;5074028;28;20640;-81
2024/01/11 10:23:03;;;;;;;37.40;20.90;;;-2.00;1.00;;;;;;5073935;28;20288;-83
2024/01/11 10:25:29;;;;;;;40.97;23.20;;;-2.00;1.00;;;;;;5074851;28;20188;-79
2024/01/11 10:27:55;;;;;;;37.57;22.23;;;-2.00;1.00;;;;;;5074021;28;20203;-80
2024/01/11 10:30:22;;;;;;;38.07;23.93;;;-1.80;1.00;;;;;;5074912;28;20202;-83
2024/01/11 10:32:49;;;;;;;41.00;25.07;;;-1.60;1.00;;;;;;5074044;28;20627;-80
2024/01/11 10:35:17;;;;;;;35.93;23.57;;;-1.50;1.00;;;;;;5074725;28;20172;-80
2024/01/11 10:37:44;;;;;;;34.00;22.97;;;-1.40;1.00;;;;;;5074855;28;20211;-84
2024/01/11 10:40:13;;;;;;;36.47;23.50;;;-1.40;1.00;;;;;;5074599;28;20172;-80
2024/01/11 10:42:49;;;;;;;37.03;23.63;;;-1.40;1.00;;;;;;5073380;28;20181;-79
2024/01/11 10:45:17;;;;;;;38.30;23.77;;;-1.20;1.00;;;;;;5072659;28;20632;-84
2024/01/11 10:47:53;;;;;;;37.17;24.00;;;-1.10;1.00;;;;;;5082680;28;20179;-80
2024/01/11 10:50:19;;;;;;;34.77;23.83;;;-1.00;1.00;;;;;;5094846;28;20235;-81
2024/01/11 10:53:06;;;;;;;40.20;25.00;;;-0.80;1.00;;;;;;5094605;28;20186;-80
2024/01/11 10:55:34;;;;;;;38.83;21.97;;;-0.80;1.00;;;;;;5093099;28;20171;-81
2024/01/11 10:58:01;;;;;;;32.90;21.47;;;-0.80;1.00;;;;;;5092839;28;20212;-80
2024/01/11 11:00:32;;;;;;;37.27;24.00;;;-0.70;1.00;;;;;;5092149;28;20195;-79
2024/01/11 11:03:00;;;;;;;38.07;23.47;;;-0.60;1.00;;;;;;5094323;28;20179;-80
2024/01/11 11:05:28;;;;;;;33.33;21.17;;;-0.50;1.00;;;;;;5094314;28;20195;-83
2024/01/11 11:07:55;;;;;;;36.70;23.03;;;-0.60;1.00;;;;;;5093065;28;20253;-83
2024/01/11 11:10:22;;;;;;;31.00;19.40;;;-0.40;1.00;;;;;;5093049;28;20176;-83
2024/01/11 11:12:49;;;;;;;32.17;19.53;;;-0.40;1.00;;;;;;5094506;28;20609;-79
2024/01/11 11:15:15;;;;;;;35.40;21.37;;;-0.60;1.00;;;;;;5092735;28;20233;-82
2024/01/11 11:17:45;;;;;;;31.73;21.13;;;-0.60;1.00;;;;;;5094090;28;20207;-82
2024/01/11 11:20:11;;;;;;;34.20;21.00;;;-0.50;1.00;;;;;;5093507;28;20631;-80
2024/01/11 11:22:39;;;;;;;35.13;21.57;;;-0.40;1.00;;;;;;5091716;28;20171;-82
2024/01/11 11:25:10;;;;;;;33.20;21.93;;;-0.50;1.00;;;;;;5093611;28;20192;-79
2024/01/11 11:27:36;;;;;;;31.37;20.50;;;-0.40;1.00;;;;;;5092848;28;20235;-79
2024/01/11 11:30:04;;;;;;;31.37;21.20;;;-0.40;1.00;;;;;;5093332;28;20168;-80
2024/01/11 11:32:37;;;;;;;32.50;20.77;;;-0.30;1.00;;;;;;5092337;28;20191;-80
2024/01/11 11:35:08;;;;;;;32.07;21.17;;;-0.10;1.00;;;;;;5092554;28;20534;-80
2024/01/11 11:37:36;;;;;;;27.33;19.77;;;-0.10;1.00;;;;;;5093259;28;20212;-79
2024/01/11 11:40:02;;;;;;;30.37;19.10;;;0.00;1.00;;;;;;5093482;28;20171;-81
2024/01/11 11:42:30;;;;;;;31.80;20.97;;;0.00;1.00;;;;;;5093266;28;20175;-80
2024/01/11 11:44:57;;;;;;;32.90;19.47;;;0.00;1.00;;;;;;5093791;28;20231;-80
2024/01/11 11:47:23;;;;;;;32.67;20.20;;;0.10;1.00;;;;;;5093633;28;20640;-83
2024/01/11 11:50:09;;;;;;;30.73;19.90;;;0.20;1.00;;;;;;5092588;28;20155;-81
2024/01/11 11:52:37;;;;;;;26.83;18.30;;;0.30;1.00;;;;;;5093422;28;20167;-79
2024/01/11 11:55:03;;;;;;;29.97;19.87;;;0.30;1.00;;;;;;5091614;28;20282;-80
2024/01/11 11:57:29;;;;;;;31.57;19.27;;;0.40;1.00;;;;;;5093202;28;20682;-80
2024/01/11 11:59:58;;;;;;;26.03;18.87;;;0.60;1.00;;;;;;5093527;28;20164;-80
2024/01/11 12:02:25;;;;;;;30.20;18.27;;;0.70;1.00;;;;;;5092103;28;20180;-81
2024/01/11 12:04:51;;;;;;;28.33;17.47;;;0.80;1.00;;;;;;5091331;28;20592;-81
2024/01/11 12:07:17;;;;;;;32.40;20.10;;;0.80;1.00;;;;;;5093318;28;20194;-81
2024/01/11 12:09:43;;;;;;;30.20;17.93;;;0.60;1.00;;;;;;5092075;28;20619;-82
2024/01/11 12:12:09;;;;;;;28.60;17.67;;;0.70;1.00;;;;;;5091578;28;20210;-83
2024/01/11 12:14:35;;;;;;;27.70;19.20;;;0.80;1.00;;;;;;5091180;28;20206;-79
2024/01/11 12:17:01;;;;;;;25.60;17.57;;;0.90;1.00;;;;;;5091611;28;20259;-80
2024/01/11 12:19:28;;;;;;;28.37;17.73;;;0.90;1.00;;;;;;5090646;28;20261;-81
2024/01/11 12:21:54;;;;;;;25.80;16.70;;;0.90;1.00;;;;;;5093374;28;20168;-79
2024/01/11 12:24:23;;;;;;;24.97;16.03;;;0.90;1.00;;;;;;5094122;28;20168;-80
2024/01/11 12:26:53;;;;;;;30.80;19.23;;;1.00;1.00;;;;;;5091595;28;20635;-80
2024/01/11 12:29:19;;;;;;;29.27;17.77;;;0.90;1.00;;;;;;5090407;28;20167;-80
2024/01/11 12:31:45;;;;;;;24.43;16.40;;;1.00;1.00;;;;;;5091507;28;20175;-79
2024/01/11 12:34:12;;;;;;;24.73;15.90;;;1.00;1.00;;;;;;5091372;28;20254;-84
2024/01/11 12:36:38;;;;;;;24.30;17.07;;;1.10;1.00;;;;;;5091832;28;20310;-78